Mexican Cut, RMBL, Colorado Weather observations

Data are for 10 minute period ending at time listed.
 Day   Time   Solar   Ave.   Ave.  Ave.  Vector  Max.   Baro.   Total    
  of    of     Rad.   Air    Rel.  Wind   Wind   Wind  Press.  Precip.   
Year   Day            Temp.  Hum.  Speed  Dir.   Gust                    
2016   (MST)  Kw/m2    F      %     mph   deg.    mph    mb.     in.     
-------------------------------------------------------------------------
  43   22:30   0.00   31.1    47    1.5   167     3.6   679.5    0.00 
  43   22:40   0.00   29.9    50    1.8   266     5.0   679.5    0.00 
  43   22:50   0.00   31.2    47    2.0    56     5.6   679.5    0.00 
  43   23:00   0.00   30.4    49    2.4   155     6.2   679.4    0.00 
  43   23:10   0.00   29.8    50    2.1   169     6.0   679.2    0.00 
  43   23:20   0.00   30.8    48    2.0   197    12.9   679.3    0.00 
  43   23:30   0.00   31.3    47    2.7   318     9.0   679.2    0.00 
  43   23:40   0.00   31.3    47    3.9   350    13.9   679.2    0.00 
  43   23:50   0.00   31.3    47    3.1    75     9.6   679.2    0.00 
  44    0:00   0.00   30.6    48    2.3   302     6.4   679.1    0.00 
  44    0:10   0.00   31.5    46    2.0   131     6.3   678.9    0.00 
  44    0:20   0.00   30.9    48    1.5   203     4.9   679.1    0.00 
  44    0:30   0.00   30.8    49    1.7   253     5.3   679.0    0.00 
  44    0:40   0.00   30.7    49    2.0   349     4.7   678.9    0.00 
  44    0:50   0.00   29.8    51    1.4     5     4.1   678.9    0.00 
  44    1:00   0.00   29.1    53    1.7   258     3.7   678.9    0.00 
  44    1:10   0.00   28.7    54    1.8   190     3.7   678.7    0.00 
  44    1:20   0.00   27.6    56    1.6   217     4.1   678.8    0.00 
  44    1:30   0.00   27.6    56    1.3   224     2.9   678.7    0.00 
  44    1:40   0.00   27.4    57    0.8   253     2.5   678.7    0.00 
  44    1:50   0.00   26.7    58    1.8   200     4.2   678.7    0.00 
  44    2:00   0.00   27.0    57    1.4   226     4.3   678.6    0.00 
  44    2:10   0.00   27.4    56    2.0    27     4.5   678.5    0.00 
  44    2:20   0.00   28.6    53    2.2    86     4.7   678.5    0.00 
  44    2:30   0.00   29.2    51    2.3   359     6.8   678.4    0.00 
  44    2:40   0.00   31.1    46    2.7     8     9.9   678.2    0.00 
  44    2:50   0.00   31.5    44    2.5   352     7.2   678.2    0.00 
  44    3:00   0.00   31.8    42    2.6    10     9.0   678.1    0.00 
  44    3:10   0.00   32.3    36    3.4   101    12.7   677.9    0.00 
  44    3:20   0.00   33.6    26    3.6   159    18.0   677.9    0.00 
  44    3:30   0.00   33.2    28    3.4   191     9.9   677.9    0.00 
  44    3:40   0.00   32.5    28    3.1   165    11.0   677.8    0.00 
  44    3:50   0.00   33.2    22    4.4   183    13.7   677.7    0.00 
  44    4:00   0.00   33.4    22    4.8   340    16.6   677.6    0.00 
  44    4:10   0.00   33.6    22    5.5    10    16.7   677.4    0.00 
  44    4:20   0.00   32.9    21    3.4   340    16.1   677.5    0.00 
  44    4:30   0.00   33.3    17    2.8   349    10.4   677.5    0.00 
  44    4:40   0.00   33.3    17    3.1   322     6.3   677.4    0.00 
  44    4:50   0.00   34.0    15    8.6   288    20.2   677.4    0.00 
  44    5:00   0.00   33.4    15    4.5   344    16.5   677.3    0.00 
  44    5:10   0.00   33.3    15    3.9    53    14.3   677.1    0.00 
  44    5:20   0.00   33.0    16    3.2   318    12.1   677.3    0.00 
  44    5:30   0.00   32.6    18    2.7   242    10.4   677.4    0.00 
  44    5:40   0.00   32.4    18    2.2    31     5.8   677.3    0.00 
  44    5:50   0.00   32.6    17    4.0   270    14.2   677.2    0.00 
  44    6:00   0.00   33.0    15    4.8   216    13.4   677.2    0.00 
  44    6:10   0.00   32.8    16    5.4   195    23.3   677.0    0.00 
  44    6:20   0.00   33.0    16    5.5   197    15.3   677.1    0.00 
  44    6:30   0.00   33.0    16    4.2    16    14.4   677.1    0.00 
  44    6:40   0.00   32.1    18    2.6   125    12.3   677.1    0.00 
  44    6:50   0.00   32.2    17    4.5   257    16.0   677.2    0.00 
  44    7:00   0.00   32.1    18    3.0   264    14.9   677.3    0.00 
  44    7:10   0.00   31.9    18    4.1   213    14.6   677.2    0.00 
  44    7:20   0.01   31.8    18    3.8   277    10.8   677.2    0.00 
  44    7:30   0.02   32.3    17    5.9   265    17.8   677.2    0.00 
  44    7:40   0.03   32.4    17    4.5   262    18.3   677.1    0.00 
  44    7:50   0.12   32.9    17    6.7   275    20.2   677.1    0.00 
  44    8:00   0.19   33.4    16    5.8   302    14.9   677.1    0.00 
  44    8:10   0.23   33.7    16    5.7   349    17.2   676.9    0.00 
  44    8:20   0.26   34.3    15    6.9   301    18.5   677.1    0.00 
  44    8:30   0.29   35.0    15    5.9   316    16.3   677.1    0.00 
  44    8:40   0.34   34.6    15    6.4   288    15.3   677.0    0.00 
  44    8:50   0.39   35.1    14    6.6   308    17.4   677.0    0.00 
  44    9:00   0.27   35.5    14    5.2   290    18.6   677.0    0.00 
  44    9:10   0.23   35.6    14    4.0   296    18.6   677.0    0.00 
  44    9:20   0.54   34.8    14    8.7   270    22.7   676.9    0.00 
  44    9:30   0.30   34.4    16    6.7   261    20.0   676.9    0.00 
  44    9:40   0.38   33.3    16   10.5   289    24.8   676.9    0.00 
  44    9:50   0.52   33.7    16    8.9   284    25.2   676.9    0.00 
  44   10:00   0.41   34.2    16    6.7   278    26.3   676.8    0.00 
  44   10:10   0.48   33.5    17    8.4   276    22.0   676.8    0.00 
  44   10:20   0.59   34.1    17    9.0   289    21.3   676.7    0.00 
  44   10:30   0.61   34.6    15    8.7   278    18.9   676.6    0.00 
  44   10:40   0.59   34.3    15    9.0   293    20.3   676.6    0.00 
  44   10:50   0.61   34.4    15    8.8   295    24.5   676.5    0.00 
  44   11:00   0.70   35.1    15    6.4   295    14.5   676.4    0.00 
  44   11:10   0.73   35.7    14    6.3   278    13.5   676.4    0.00 
  44   11:20   0.80   36.1    14    7.7   271    17.0   676.3    0.00 
  44   11:30   0.80   35.4    14    8.3   294    21.4   676.2    0.00 
  44   11:40   0.75   35.3    14    8.3   285    17.7   676.1    0.00 
  44   11:50   0.78   35.1    14    8.4   286    18.7   676.0    0.00 
  44   12:00   0.79   35.5    15    7.5   295    19.2   675.9    0.00 
  44   12:10   0.81   36.9    14    5.5   249    13.0   675.8    0.00 
  44   12:20   0.82   36.3    15    6.3   283    15.3   675.6    0.00 
  44   12:30   0.84   36.1    15    7.3   300    19.4   675.4    0.00 
  44   12:40   0.68   35.9    14    6.3   274    16.6   675.3    0.00 
  44   12:50   0.82   35.6    14    9.7   289    24.3   675.3    0.00 
  44   13:00   0.79   35.8    14    8.0   276    20.6   675.2    0.00 
  44   13:10   0.64   35.4    14    6.1   299    14.7   675.2    0.00 
  44   13:20   0.51   35.6    15    4.8   270    13.0   674.9    0.00 
  44   13:30   0.51   34.9    17    5.1   290    13.2   674.9    0.00 
  44   13:40   0.54   34.7    18    5.7   293    15.7   674.8    0.00 
  44   13:50   0.43   34.7    18    3.9   285    12.0   674.8    0.00 
  44   14:00   0.40   34.5    19    4.9   253    14.8   674.6    0.00 
  44   14:10   0.52   35.2    19    4.1   289    11.0   674.6    0.00 
  44   14:20   0.53   34.1    21    5.1   296    12.3   674.5    0.00 
  44   14:30   0.45   34.8    22    3.4   181    11.5   674.5    0.00 
  44   14:40   0.34   35.4    22    2.6   216     8.6   674.4    0.00 
  44   14:50   0.45   34.3    23    3.9   284    14.1   674.5    0.00 
  44   15:00   0.39   34.6    25    4.1   253    12.1   674.5    0.00 
  44   15:10   0.38   33.2    27    5.9   298    16.3   674.6    0.00 
  44   15:20   0.29   32.5    29    5.2   282    14.8   674.5    0.00 
  44   15:30   0.22   31.6    31    4.9   302    12.6   674.6    0.00 
  44   15:40   0.18   31.3    32    6.5   270    15.9   674.8    0.00 
  44   15:50   0.12   30.9    33    7.0   261    16.9   674.9    0.00 
  44   16:00   0.11   30.8    34    4.2   273     8.6   674.9    0.00 
  44   16:10   0.09   30.8    34    2.9   306     9.1   675.0    0.00 
  44   16:20   0.09   30.6    34    3.4   244     9.4   675.0    0.00 
  44   16:30   0.12   30.4    35    2.0   152     5.8   674.8    0.00 
  44   16:40   0.08   30.4    35    1.6   268     5.0   674.8    0.00 
  44   16:50   0.07   30.2    34    1.1   277     3.2   674.9    0.00 
  44   17:00   0.05   30.1    34    1.7   244     5.8   674.9    0.00 
  44   17:10   0.03   29.8    35    1.0   242     3.1   674.8    0.00 
  44   17:20   0.02   29.4    36    1.5   272     4.2   674.8    0.00 
  44   17:30   0.01   29.0    37    1.3   217     6.7   674.8    0.00 
  44   17:40   0.01   28.6    38    2.4   258     6.4   674.7    0.00 
  44   17:50   0.00   28.5    39    2.4   301     9.1   674.8    0.00 
  44   18:00   0.00   28.3    38    2.8   232    12.3   674.8    0.00 
  44   18:10   0.00   28.0    37    2.3   252     7.1   674.8    0.00 
  44   18:20   0.00   27.9    35    2.6   213     9.7   674.7    0.00 
  44   18:30   0.00   27.6    36    1.0   222     2.9   674.8    0.00 
  44   18:40   0.00   27.1    38    2.4   223     9.1   674.7    0.00 
  44   18:50   0.00   27.3    38    2.4   283    10.2   674.7    0.00 
  44   19:00   0.00   26.9    39    2.7   280     7.1   674.7    0.00 
  44   19:10   0.00   26.8    38    2.6   268     8.4   674.6    0.00 
  44   19:20   0.00   27.0    33    5.3   261    12.4   674.4    0.00 
  44   19:30   0.00   27.1    32    3.4   254     8.1   674.1    0.00 
  44   19:40   0.00   26.4    33    2.3   294     8.6   674.0    0.00 
  44   19:50   0.00   26.1    35    2.6   338     7.2   674.3    0.00 
  44   20:00   0.00   25.3    38    1.4   142     5.8   674.6    0.00 
  44   20:10   0.00   24.9    37    1.6   280     6.8   674.6    0.00 
  44   20:20   0.00   25.1    37    1.8   216     5.8   674.8    0.00 
  44   20:30   0.00   25.3    37    2.4   280     6.6   674.9    0.00 
  44   20:40   0.00   24.8    39    1.6   308     4.5   674.9    0.00 
  44   20:50   0.00   23.9    41    1.5   250     4.2   675.1    0.00 
  44   21:00   0.00   23.5    42    1.2   191     4.1   675.2    0.00 
  44   21:10   0.00   23.6    41    1.2   246     4.0   675.0    0.00 
  44   21:20   0.00   24.0    39    1.6   243     4.2   675.1    0.00 
  44   21:30   0.00   24.4    39    1.9   287     5.4   675.2    0.00 
  44   21:40   0.00   24.0    41    1.4   302     4.4   675.3    0.00 
  44   21:50   0.00   23.5    42    1.5   307     3.5   675.2    0.00 
  44   22:00   0.00   23.1    43    1.1   282     3.2   675.2    0.00 
  44   22:10   0.00   22.4    44    0.6   207     2.6   675.1    0.00 
  44   22:20   0.00   21.7    47    0.8   231     2.8   675.3    0.00 

Return to Mexican Cut, RMBL, Colorado graphs page.


Western Regional Climate Center,wrcc@dri.edu